Time;durP1;ratioP1;P1;durP2;ratioP2;P2;SDS_P1;SDS_P2;PMS_P1;PMS_P2;Temp;Humidity;BMP_temperature;BMP_pressure;BME280_temperature;BME280_humidity;BME280_pressure;Samples;Min_cycle;Max_cycle;Signal;HPM_P1;HPM_P2
2023/01/20 00:00:50;;;;;;;16.10;10.77;;;0.00;99.90;;;;;;494007;241;27473;-74
2023/01/20 00:02:51;;;;;;;13.18;9.48;;;0.10;99.90;;;;;;494054;241;27496;-74
2023/01/20 00:04:53;;;;;;;16.73;11.43;;;0.10;99.90;;;;;;494056;241;27587;-73
2023/01/20 00:06:54;;;;;;;15.00;10.90;;;0.00;99.90;;;;;;494024;241;27891;-74
2023/01/20 00:08:55;;;;;;;16.25;10.63;;;0.10;99.90;;;;;;494024;241;29073;-73
2023/01/20 00:10:56;;;;;;;15.02;10.65;;;0.00;99.90;;;;;;493997;241;27548;-74
2023/01/20 00:12:58;;;;;;;18.35;10.93;;;0.10;99.90;;;;;;494014;241;27485;-73
2023/01/20 00:14:59;;;;;;;12.20;8.95;;;0.00;99.90;;;;;;494017;241;27612;-73
2023/01/20 00:17:00;;;;;;;14.50;10.23;;;0.00;99.90;;;;;;494025;241;27473;-74
2023/01/20 00:19:01;;;;;;;13.15;8.82;;;-0.10;99.90;;;;;;493955;241;27573;-73
2023/01/20 00:21:03;;;;;;;12.55;9.27;;;-0.10;99.90;;;;;;494035;241;28672;-73
2023/01/20 00:23:04;;;;;;;17.20;11.35;;;-0.10;99.90;;;;;;494051;241;27925;-74
2023/01/20 00:25:05;;;;;;;14.00;8.77;;;-0.10;99.90;;;;;;494033;241;27595;-74
2023/01/20 00:27:07;;;;;;;13.38;9.50;;;-0.10;99.90;;;;;;494025;237;27472;-73
2023/01/20 00:29:08;;;;;;;13.10;9.38;;;-0.20;99.90;;;;;;494018;241;27506;-73
2023/01/20 00:31:09;;;;;;;15.10;9.90;;;-0.20;99.90;;;;;;494013;241;27567;-73
2023/01/20 00:33:10;;;;;;;12.25;9.07;;;-0.20;99.90;;;;;;494017;241;27476;-73
2023/01/20 00:35:11;;;;;;;12.88;8.63;;;-0.30;99.90;;;;;;494017;241;27495;-74
2023/01/20 00:37:13;;;;;;;13.10;9.25;;;-0.30;99.90;;;;;;493944;239;28152;-73
2023/01/20 00:39:14;;;;;;;12.52;8.85;;;-0.40;99.90;;;;;;494005;241;28006;-73
2023/01/20 00:41:15;;;;;;;15.65;9.98;;;-0.40;99.90;;;;;;493988;241;27595;-73
2023/01/20 00:43:16;;;;;;;14.25;9.27;;;-0.50;99.90;;;;;;493872;241;27456;-73
2023/01/20 00:45:18;;;;;;;13.13;9.60;;;-0.50;99.90;;;;;;493890;241;27501;-73
2023/01/20 00:47:19;;;;;;;13.57;9.20;;;-0.60;99.90;;;;;;494023;241;27513;-73
2023/01/20 00:49:20;;;;;;;12.80;9.70;;;-0.60;99.90;;;;;;494008;241;27505;-74
2023/01/20 00:51:22;;;;;;;12.55;8.40;;;-0.60;99.90;;;;;;494015;241;27600;-73
2023/01/20 00:53:24;;;;;;;11.88;9.52;;;-0.60;99.90;;;;;;493974;241;27985;-73
2023/01/20 00:55:26;;;;;;;14.40;10.57;;;-0.60;99.90;;;;;;494006;241;27533;-73
2023/01/20 00:57:27;;;;;;;15.23;9.48;;;-0.60;99.90;;;;;;494009;237;27982;-73
2023/01/20 00:59:28;;;;;;;12.50;8.77;;;-0.70;99.90;;;;;;493957;241;28002;-73
2023/01/20 01:01:29;;;;;;;12.77;9.70;;;-0.70;99.90;;;;;;493916;241;27585;-73
2023/01/20 01:03:31;;;;;;;14.90;9.90;;;-0.80;99.90;;;;;;493898;241;27563;-73
2023/01/20 01:05:32;;;;;;;19.02;9.52;;;-0.80;99.90;;;;;;493974;241;27498;-73
2023/01/20 01:07:33;;;;;;;10.88;8.57;;;-0.80;99.90;;;;;;493984;241;27475;-73
2023/01/20 01:09:34;;;;;;;19.17;11.75;;;-0.90;99.90;;;;;;493986;241;27503;-73
2023/01/20 01:11:36;;;;;;;14.10;10.43;;;-1.00;99.90;;;;;;493977;241;27909;-74
2023/01/20 01:13:37;;;;;;;21.30;13.52;;;-1.10;99.90;;;;;;493966;241;27976;-73
2023/01/20 01:15:38;;;;;;;21.25;11.57;;;-1.10;99.90;;;;;;493999;241;27528;-73
2023/01/20 01:17:39;;;;;;;16.60;10.88;;;-1.10;99.90;;;;;;493980;241;27530;-73
2023/01/20 01:19:41;;;;;;;22.33;12.43;;;-1.10;99.90;;;;;;494010;241;27585;-73
2023/01/20 01:21:42;;;;;;;15.07;10.75;;;-1.10;99.90;;;;;;494025;241;27513;-73
2023/01/20 01:23:43;;;;;;;16.75;11.63;;;-1.10;99.90;;;;;;494017;241;28047;-73
2023/01/20 01:25:44;;;;;;;15.90;10.93;;;-1.10;99.90;;;;;;494016;241;28062;-73
2023/01/20 01:27:46;;;;;;;15.40;10.68;;;-1.10;99.90;;;;;;493997;239;27521;-73
2023/01/20 01:29:47;;;;;;;23.58;14.13;;;-1.10;99.90;;;;;;494019;241;27505;-73
2023/01/20 01:31:48;;;;;;;18.90;13.07;;;-1.20;99.90;;;;;;493941;241;27458;-74
2023/01/20 01:33:49;;;;;;;17.45;10.85;;;-1.10;99.90;;;;;;494006;241;27575;-73
2023/01/20 01:35:51;;;;;;;16.77;10.95;;;-1.20;99.90;;;;;;493687;241;27997;-73
2023/01/20 01:37:52;;;;;;;16.50;10.45;;;-1.10;99.90;;;;;;494037;241;29147;-73
2023/01/20 01:39:53;;;;;;;17.73;11.02;;;-1.20;99.90;;;;;;494022;241;27625;-73
2023/01/20 01:41:55;;;;;;;13.77;10.40;;;-1.20;99.90;;;;;;494048;241;27459;-73
2023/01/20 01:43:56;;;;;;;17.87;11.18;;;-1.20;99.90;;;;;;494004;241;27482;-73
2023/01/20 01:45:57;;;;;;;16.90;11.00;;;-1.30;99.90;;;;;;494018;241;27511;-73
2023/01/20 01:47:58;;;;;;;17.15;11.27;;;-1.30;99.90;;;;;;494022;241;27462;-73
2023/01/20 01:50:00;;;;;;;24.50;11.85;;;-1.30;99.90;;;;;;494058;241;27961;-73
2023/01/20 01:52:01;;;;;;;17.00;11.63;;;-1.30;99.90;;;;;;494015;241;27850;-73
2023/01/20 01:54:02;;;;;;;16.40;11.18;;;-1.30;99.90;;;;;;493939;241;27489;-74
2023/01/20 01:56:03;;;;;;;16.58;11.30;;;-1.40;99.90;;;;;;494016;241;27571;-73
2023/01/20 01:58:05;;;;;;;16.20;10.10;;;-1.40;99.90;;;;;;493990;241;27473;-73
2023/01/20 02:00:06;;;;;;;13.90;9.50;;;-1.40;99.90;;;;;;494022;241;27559;-73
2023/01/20 02:02:07;;;;;;;18.55;11.77;;;-1.40;99.90;;;;;;493976;241;28712;-73
2023/01/20 02:04:08;;;;;;;21.70;12.52;;;-1.40;99.90;;;;;;493988;241;29018;-74
2023/01/20 02:06:10;;;;;;;19.37;12.15;;;-1.50;99.90;;;;;;493993;241;27513;-73
2023/01/20 02:08:11;;;;;;;19.48;12.37;;;-1.50;99.90;;;;;;494013;241;27466;-73
2023/01/20 02:10:12;;;;;;;18.90;12.35;;;-1.50;99.90;;;;;;493974;241;27577;-73
2023/01/20 02:12:13;;;;;;;19.08;11.60;;;-1.70;99.90;;;;;;493969;241;27572;-73
2023/01/20 02:14:15;;;;;;;17.12;11.00;;;-1.70;99.90;;;;;;494012;241;28011;-73
2023/01/20 02:16:16;;;;;;;15.85;10.10;;;-1.70;99.90;;;;;;493995;241;27968;-73
2023/01/20 02:18:17;;;;;;;21.75;11.20;;;-1.70;99.90;;;;;;494013;241;27545;-74
2023/01/20 02:20:18;;;;;;;16.87;11.18;;;-1.80;99.90;;;;;;493995;241;27506;-73
2023/01/20 02:22:20;;;;;;;16.62;11.35;;;-1.80;99.90;;;;;;494035;241;27528;-73
2023/01/20 02:24:21;;;;;;;16.02;11.05;;;-1.80;99.90;;;;;;494027;241;27495;-74
2023/01/20 02:26:22;;;;;;;17.40;11.40;;;-1.80;99.90;;;;;;493984;241;27592;-73
2023/01/20 02:28:23;;;;;;;20.27;12.45;;;-1.80;99.90;;;;;;493994;241;27921;-73
2023/01/20 02:30:25;;;;;;;18.55;11.55;;;-1.80;99.90;;;;;;493992;241;27497;-73
2023/01/20 02:32:26;;;;;;;18.25;10.27;;;-1.80;99.90;;;;;;494030;241;27630;-73
2023/01/20 02:34:27;;;;;;;18.05;10.93;;;-1.80;99.90;;;;;;493995;241;27493;-73
2023/01/20 02:36:29;;;;;;;15.80;11.40;;;-1.80;99.90;;;;;;494007;237;27508;-73
2023/01/20 02:38:30;;;;;;;17.40;11.57;;;-1.80;99.90;;;;;;493869;241;27556;-73
2023/01/20 02:40:31;;;;;;;16.98;12.52;;;-1.80;99.90;;;;;;494010;241;27973;-73
2023/01/20 02:42:32;;;;;;;15.82;11.10;;;-1.80;99.90;;;;;;494031;241;27990;-73
2023/01/20 02:44:34;;;;;;;15.63;9.93;;;-1.90;99.90;;;;;;494009;241;27462;-73
2023/01/20 02:46:35;;;;;;;16.62;10.60;;;-1.80;99.90;;;;;;493949;241;27500;-73
2023/01/20 02:48:38;;;;;;;16.00;10.75;;;-1.90;99.90;;;;;;493514;241;27488;-73
2023/01/20 02:50:37;;;;;;;17.00;11.98;;;-1.90;99.90;;;;;;493184;241;27537;-73
2023/01/20 02:52:39;;;;;;;15.50;10.45;;;-1.90;99.90;;;;;;493593;241;28073;-73
2023/01/20 02:54:40;;;;;;;19.25;11.20;;;-1.90;99.90;;;;;;493933;241;29104;-74
2023/01/20 02:56:41;;;;;;;14.85;10.70;;;-2.00;99.90;;;;;;493998;241;27580;-73
2023/01/20 02:58:42;;;;;;;14.85;11.15;;;-2.00;99.90;;;;;;494011;241;27504;-74
2023/01/20 03:00:44;;;;;;;18.95;12.18;;;-2.00;99.90;;;;;;493987;241;27511;-73
2023/01/20 03:02:45;;;;;;;16.17;11.10;;;-2.00;99.90;;;;;;493976;241;27517;-73
2023/01/20 03:04:46;;;;;;;19.92;12.15;;;-2.00;99.90;;;;;;493992;241;27458;-74
2023/01/20 03:06:47;;;;;;;16.98;10.55;;;-2.00;99.90;;;;;;494015;241;28050;-73
2023/01/20 03:08:49;;;;;;;16.65;10.23;;;-2.10;99.90;;;;;;494003;241;27562;-73
2023/01/20 03:10:50;;;;;;;15.85;11.10;;;-2.10;99.90;;;;;;494009;241;27588;-73
2023/01/20 03:12:51;;;;;;;17.23;11.32;;;-2.10;99.90;;;;;;494013;241;27530;-73
2023/01/20 03:14:52;;;;;;;17.67;10.75;;;-2.10;99.90;;;;;;493996;241;27548;-73
2023/01/20 03:16:54;;;;;;;16.40;11.20;;;-2.10;99.90;;;;;;493988;241;27502;-73
2023/01/20 03:18:55;;;;;;;15.68;10.38;;;-2.10;99.90;;;;;;494035;241;28726;-72
2023/01/20 03:20:56;;;;;;;16.00;11.10;;;-2.20;99.90;;;;;;494027;241;29031;-74
2023/01/20 03:22:57;;;;;;;15.00;10.13;;;-2.20;99.90;;;;;;494036;241;27580;-73
2023/01/20 03:24:59;;;;;;;15.50;10.13;;;-2.20;99.90;;;;;;494045;241;27605;-74
2023/01/20 03:27:00;;;;;;;15.05;10.60;;;-2.20;99.90;;;;;;494024;241;27490;-73
2023/01/20 03:29:01;;;;;;;14.57;10.52;;;-2.30;99.90;;;;;;494013;241;27452;-73
2023/01/20 03:31:03;;;;;;;18.87;11.25;;;-2.30;99.90;;;;;;494047;241;27924;-73
2023/01/20 03:33:04;;;;;;;14.10;9.38;;;-2.30;99.90;;;;;;493972;241;29192;-73
2023/01/20 03:35:05;;;;;;;12.73;9.23;;;-2.30;99.90;;;;;;494010;241;27458;-73
2023/01/20 03:37:06;;;;;;;12.98;9.55;;;-2.30;99.90;;;;;;494009;241;27580;-73
2023/01/20 03:39:08;;;;;;;15.68;9.68;;;-2.30;99.90;;;;;;493998;241;27500;-74
2023/01/20 03:41:09;;;;;;;16.33;10.40;;;-2.30;99.90;;;;;;494017;241;27560;-73
2023/01/20 03:43:10;;;;;;;14.68;9.77;;;-2.30;99.90;;;;;;493996;241;27517;-73
2023/01/20 03:45:11;;;;;;;16.98;10.10;;;-2.30;99.90;;;;;;494010;241;27457;-73
2023/01/20 03:47:13;;;;;;;16.30;10.73;;;-2.30;99.90;;;;;;493997;241;27977;-73
2023/01/20 03:49:14;;;;;;;16.02;10.63;;;-2.40;99.90;;;;;;493985;241;27505;-73
2023/01/20 03:51:15;;;;;;;16.25;10.25;;;-2.40;99.90;;;;;;494003;241;27477;-73
2023/01/20 03:53:16;;;;;;;15.10;11.50;;;-2.40;99.90;;;;;;493990;241;27608;-73
2023/01/20 03:55:18;;;;;;;18.00;11.77;;;-2.50;99.90;;;;;;494004;241;27349;-73
2023/01/20 03:57:19;;;;;;;17.05;10.65;;;-2.50;99.90;;;;;;493949;241;27494;-74
2023/01/20 03:59:20;;;;;;;15.82;10.55;;;-2.50;99.90;;;;;;494015;241;28761;-73
2023/01/20 04:01:21;;;;;;;15.70;10.82;;;-2.50;99.90;;;;;;494024;241;28017;-73
2023/01/20 04:03:23;;;;;;;19.15;10.90;;;-2.50;99.90;;;;;;494024;241;27535;-72
2023/01/20 04:05:24;;;;;;;13.38;10.00;;;-2.50;99.90;;;;;;494027;241;27547;-73
2023/01/20 04:07:25;;;;;;;16.77;10.52;;;-2.50;99.90;;;;;;493952;241;27516;-73
2023/01/20 04:09:26;;;;;;;13.80;10.40;;;-2.50;99.90;;;;;;493908;241;27380;-73
2023/01/20 04:11:28;;;;;;;17.15;11.95;;;-2.60;99.90;;;;;;494007;241;27950;-73
2023/01/20 04:13:29;;;;;;;14.25;10.10;;;-2.60;99.90;;;;;;493983;241;29068;-73
2023/01/20 04:15:30;;;;;;;15.23;9.15;;;-2.60;99.90;;;;;;494011;241;27599;-73
2023/01/20 04:17:31;;;;;;;15.85;9.73;;;-2.60;99.90;;;;;;493988;241;27501;-73
2023/01/20 04:19:33;;;;;;;15.40;10.73;;;-2.60;99.90;;;;;;494050;241;27519;-73
2023/01/20 04:21:34;;;;;;;17.02;10.30;;;-2.70;99.90;;;;;;494034;241;27471;-73
2023/01/20 04:23:35;;;;;;;14.48;10.65;;;-2.70;99.90;;;;;;494020;241;27754;-73
2023/01/20 04:25:37;;;;;;;16.00;9.80;;;-2.70;99.90;;;;;;494024;241;27940;-73
2023/01/20 04:27:38;;;;;;;15.25;10.15;;;-2.70;99.90;;;;;;494035;241;27468;-73
2023/01/20 04:29:40;;;;;;;15.68;10.23;;;-2.70;99.90;;;;;;494014;241;27512;-74
2023/01/20 04:31:40;;;;;;;18.33;10.98;;;-2.70;99.90;;;;;;493990;241;27525;-73
2023/01/20 04:33:42;;;;;;;15.85;10.25;;;-2.80;99.90;;;;;;493977;241;27604;-73
2023/01/20 04:35:43;;;;;;;19.12;10.80;;;-2.70;99.90;;;;;;493958;241;27427;-73
2023/01/20 04:37:44;;;;;;;14.40;10.10;;;-2.70;99.90;;;;;;493961;241;28030;-73
2023/01/20 04:39:45;;;;;;;17.80;11.00;;;-2.70;99.90;;;;;;494013;241;27411;-73
2023/01/20 04:41:47;;;;;;;15.88;9.65;;;-2.60;99.90;;;;;;494020;241;27556;-73
2023/01/20 04:43:48;;;;;;;14.60;10.40;;;-2.70;99.90;;;;;;494043;241;27508;-73
2023/01/20 04:45:49;;;;;;;16.00;10.35;;;-2.70;99.90;;;;;;494017;237;27271;-73
2023/01/20 04:47:50;;;;;;;15.18;10.50;;;-2.80;99.90;;;;;;494007;241;27490;-73
2023/01/20 04:49:52;;;;;;;15.52;10.52;;;-2.80;99.90;;;;;;494031;241;28083;-73
2023/01/20 04:51:53;;;;;;;20.33;11.35;;;-2.80;99.90;;;;;;494012;241;29026;-73
2023/01/20 04:53:54;;;;;;;17.17;10.07;;;-2.80;99.90;;;;;;494004;241;27517;-73
2023/01/20 04:55:55;;;;;;;16.95;9.68;;;-2.90;99.90;;;;;;494026;241;27520;-74
2023/01/20 04:57:57;;;;;;;14.18;9.70;;;-2.90;99.90;;;;;;494014;241;27386;-73
2023/01/20 04:59:58;;;;;;;15.32;9.60;;;-2.90;99.90;;;;;;494030;241;27519;-73
2023/01/20 05:01:59;;;;;;;16.25;10.02;;;-2.90;99.90;;;;;;493939;241;27341;-73
2023/01/20 05:04:00;;;;;;;14.68;9.60;;;-2.90;99.90;;;;;;493994;241;27701;-73
2023/01/20 05:06:02;;;;;;;15.80;9.98;;;-2.90;99.90;;;;;;494015;241;27986;-73
2023/01/20 05:08:03;;;;;;;15.35;10.07;;;-3.00;99.90;;;;;;494048;241;27516;-73
2023/01/20 05:10:04;;;;;;;17.08;9.93;;;-2.90;99.90;;;;;;494052;241;27382;-73
2023/01/20 05:12:05;;;;;;;15.32;9.63;;;-3.00;99.90;;;;;;494027;241;27451;-73
2023/01/20 05:14:07;;;;;;;17.98;12.05;;;-3.00;99.90;;;;;;493992;238;27605;-73
2023/01/20 05:16:08;;;;;;;16.77;10.57;;;-3.00;99.90;;;;;;494037;241;27095;-73
2023/01/20 05:18:09;;;;;;;17.45;10.43;;;-2.90;99.90;;;;;;494029;241;27856;-73
2023/01/20 05:20:11;;;;;;;15.73;10.85;;;-2.90;99.90;;;;;;494055;241;27988;-73
2023/01/20 05:22:12;;;;;;;15.02;10.30;;;-2.80;99.90;;;;;;494036;241;27432;-73
2023/01/20 05:24:13;;;;;;;17.48;10.85;;;-2.80;99.90;;;;;;494031;239;27465;-74
2023/01/20 05:26:14;;;;;;;19.83;12.37;;;-2.80;99.90;;;;;;494042;241;27497;-73
2023/01/20 05:28:16;;;;;;;18.10;12.50;;;-2.90;99.90;;;;;;494005;241;27451;-73
2023/01/20 05:30:17;;;;;;;15.88;10.00;;;-3.00;99.90;;;;;;494019;241;28842;-73
2023/01/20 05:32:18;;;;;;;16.80;11.85;;;-3.00;99.90;;;;;;494009;241;27913;-73
2023/01/20 05:34:19;;;;;;;16.85;11.75;;;-3.00;99.90;;;;;;494017;237;27458;-73
2023/01/20 05:36:21;;;;;;;17.80;11.18;;;-3.00;99.90;;;;;;494015;237;27612;-73
2023/01/20 05:38:22;;;;;;;20.48;12.27;;;-2.90;99.90;;;;;;494005;241;27485;-73
2023/01/20 05:40:23;;;;;;;18.70;11.73;;;-2.90;99.90;;;;;;494006;241;27509;-73
2023/01/20 05:42:24;;;;;;;17.87;11.57;;;-2.80;99.90;;;;;;494016;241;28081;-74
2023/01/20 05:44:26;;;;;;;18.62;12.07;;;-2.90;99.90;;;;;;494034;241;29225;-73
2023/01/20 05:46:27;;;;;;;17.92;10.68;;;-2.80;99.90;;;;;;494029;241;27505;-73
2023/01/20 05:48:28;;;;;;;15.45;10.75;;;-2.80;99.90;;;;;;494017;241;27552;-73
2023/01/20 05:50:29;;;;;;;16.37;11.35;;;-2.80;99.90;;;;;;493980;241;27521;-72
2023/01/20 05:52:31;;;;;;;24.42;12.05;;;-2.90;99.90;;;;;;494006;241;27936;-73
2023/01/20 05:54:32;;;;;;;20.20;12.77;;;-2.90;99.90;;;;;;494000;241;27560;-73
2023/01/20 05:56:33;;;;;;;18.73;11.63;;;-2.80;99.90;;;;;;494031;241;27797;-73
2023/01/20 05:58:34;;;;;;;16.95;10.98;;;-2.80;99.90;;;;;;494020;241;27532;-73
2023/01/20 06:00:36;;;;;;;21.60;12.05;;;-2.80;99.90;;;;;;493999;241;27607;-73
2023/01/20 06:02:37;;;;;;;21.00;12.15;;;-2.80;99.90;;;;;;494043;241;27514;-73
2023/01/20 06:04:38;;;;;;;18.90;12.48;;;-2.90;99.90;;;;;;494014;241;27561;-73
2023/01/20 06:06:39;;;;;;;20.92;12.40;;;-2.80;99.90;;;;;;494029;241;27537;-73
2023/01/20 06:08:41;;;;;;;16.83;11.52;;;-2.90;99.90;;;;;;494034;241;27953;-74
2023/01/20 06:10:42;;;;;;;18.12;12.60;;;-2.90;99.90;;;;;;494001;241;28043;-74
2023/01/20 06:12:43;;;;;;;16.45;11.70;;;-2.80;99.90;;;;;;493900;241;27497;-73
2023/01/20 06:14:45;;;;;;;15.07;10.50;;;-2.80;99.90;;;;;;493981;241;27474;-74
2023/01/20 06:16:46;;;;;;;16.87;11.43;;;-2.80;99.90;;;;;;494007;241;27525;-74
2023/01/20 06:18:47;;;;;;;17.90;12.35;;;-2.80;99.90;;;;;;493980;241;27501;-73
2023/01/20 06:20:48;;;;;;;17.58;10.98;;;-2.80;99.90;;;;;;494025;241;27925;-73
2023/01/20 06:22:50;;;;;;;19.90;11.93;;;-2.80;99.90;;;;;;494024;241;29112;-73
2023/01/20 06:24:51;;;;;;;18.08;12.00;;;-2.80;99.90;;;;;;494004;241;27498;-72
2023/01/20 06:26:52;;;;;;;18.70;12.75;;;-2.70;99.90;;;;;;494000;241;27491;-74
2023/01/20 06:28:53;;;;;;;21.48;13.40;;;-2.60;99.90;;;;;;494032;241;27517;-73
2023/01/20 06:30:55;;;;;;;20.85;13.10;;;-2.60;99.90;;;;;;494045;241;27568;-73
2023/01/20 06:32:56;;;;;;;15.93;11.15;;;-2.50;99.90;;;;;;494015;241;27518;-72
2023/01/20 06:34:57;;;;;;;18.05;11.63;;;-2.50;99.90;;;;;;494015;241;28020;-72
2023/01/20 06:37:00;;;;;;;18.90;12.13;;;-2.40;99.90;;;;;;494007;241;27528;-73
2023/01/20 06:39:00;;;;;;;17.85;12.10;;;-2.40;99.90;;;;;;493892;241;27518;-73
2023/01/20 06:41:01;;;;;;;20.90;12.05;;;-2.50;99.90;;;;;;493989;241;27508;-73
2023/01/20 06:43:02;;;;;;;16.35;10.80;;;-2.50;99.90;;;;;;494000;241;27437;-73
2023/01/20 06:45:03;;;;;;;17.48;11.02;;;-2.50;99.90;;;;;;494015;241;27615;-73
2023/01/20 06:47:05;;;;;;;20.00;11.68;;;-2.40;99.90;;;;;;493959;241;27969;-73
2023/01/20 06:49:06;;;;;;;17.65;10.65;;;-2.40;99.90;;;;;;493999;241;28019;-73
2023/01/20 06:51:07;;;;;;;19.25;10.70;;;-2.40;99.90;;;;;;493999;241;27569;-73
2023/01/20 06:53:10;;;;;;;18.37;12.23;;;-2.40;99.90;;;;;;494005;241;27580;-73
2023/01/20 06:55:10;;;;;;;16.67;12.10;;;-2.30;99.90;;;;;;493877;241;27461;-74
2023/01/20 06:57:11;;;;;;;22.10;12.32;;;-2.30;99.90;;;;;;494013;241;27502;-73
2023/01/20 06:59:12;;;;;;;22.95;13.77;;;-2.30;99.90;;;;;;493983;241;28025;-73
2023/01/20 07:01:13;;;;;;;19.20;13.55;;;-2.40;99.90;;;;;;493876;241;29127;-73
2023/01/20 07:03:15;;;;;;;19.77;13.48;;;-2.30;99.90;;;;;;494013;241;27495;-73
2023/01/20 07:05:16;;;;;;;18.15;12.23;;;-2.20;99.90;;;;;;494010;241;27591;-73
2023/01/20 07:07:17;;;;;;;20.90;12.82;;;-2.20;99.90;;;;;;494022;241;27522;-74
2023/01/20 07:09:19;;;;;;;17.80;11.68;;;-2.10;99.90;;;;;;494026;241;27576;-74
2023/01/20 07:11:20;;;;;;;15.80;11.50;;;-2.10;99.90;;;;;;494033;241;27466;-73
2023/01/20 07:13:21;;;;;;;22.40;13.57;;;-2.00;99.90;;;;;;494049;241;28064;-73
2023/01/20 07:15:22;;;;;;;23.00;13.52;;;-2.10;99.90;;;;;;494010;237;27521;-73
2023/01/20 07:17:24;;;;;;;25.48;14.25;;;-2.00;99.90;;;;;;494032;241;27468;-73
2023/01/20 07:19:25;;;;;;;22.80;13.82;;;-1.90;99.90;;;;;;493996;241;27521;-74
2023/01/20 07:21:26;;;;;;;25.10;14.15;;;-1.90;99.90;;;;;;494029;241;27470;-73
2023/01/20 07:23:27;;;;;;;21.12;13.45;;;-2.00;99.90;;;;;;494009;241;27497;-73
2023/01/20 07:25:29;;;;;;;18.42;13.15;;;-1.90;99.90;;;;;;493799;241;28775;-73
2023/01/20 07:27:30;;;;;;;19.92;13.70;;;-1.80;99.90;;;;;;493992;241;29066;-73
2023/01/20 07:29:31;;;;;;;20.67;14.07;;;-1.80;99.90;;;;;;494000;241;27509;-73
2023/01/20 07:31:33;;;;;;;23.05;13.80;;;-1.70;99.90;;;;;;494012;241;27458;-73
2023/01/20 07:33:34;;;;;;;25.70;15.05;;;-1.60;99.90;;;;;;493976;241;27596;-72
2023/01/20 07:35:35;;;;;;;21.95;14.55;;;-1.60;99.90;;;;;;493995;241;27582;-73
2023/01/20 07:37:36;;;;;;;22.17;14.20;;;-1.60;99.90;;;;;;493994;241;28009;-73
2023/01/20 07:39:37;;;;;;;24.75;15.35;;;-1.60;99.90;;;;;;494032;241;28007;-73
2023/01/20 07:41:39;;;;;;;23.15;15.07;;;-1.50;99.90;;;;;;494007;241;27479;-73
2023/01/20 07:43:40;;;;;;;24.23;15.52;;;-1.50;99.90;;;;;;493995;241;27584;-73
2023/01/20 07:45:41;;;;;;;23.33;14.85;;;-1.50;99.90;;;;;;494012;241;27854;-73
2023/01/20 07:47:42;;;;;;;19.08;12.65;;;-1.50;99.90;;;;;;493984;241;27520;-74
2023/01/20 07:49:44;;;;;;;20.52;13.68;;;-1.40;99.90;;;;;;493998;241;27992;-73
2023/01/20 07:51:45;;;;;;;22.40;14.05;;;-1.40;99.90;;;;;;493995;241;29007;-73
2023/01/20 07:53:46;;;;;;;20.10;13.25;;;-1.50;99.90;;;;;;494021;241;27493;-73
2023/01/20 07:55:48;;;;;;;19.67;14.13;;;-1.50;99.90;;;;;;494020;241;27522;-73
2023/01/20 07:57:49;;;;;;;21.83;14.43;;;-1.40;99.90;;;;;;494056;241;27474;-73
2023/01/20 07:59:50;;;;;;;16.95;12.77;;;-1.40;99.90;;;;;;493891;241;27510;-74
2023/01/20 08:01:51;;;;;;;22.70;14.02;;;-1.40;99.90;;;;;;494010;241;27604;-73
2023/01/20 08:03:53;;;;;;;21.27;14.52;;;-1.40;99.90;;;;;;493917;241;28034;-73
2023/01/20 08:05:54;;;;;;;20.10;14.35;;;-1.30;99.90;;;;;;494009;241;27489;-73
2023/01/20 08:07:55;;;;;;;23.05;14.85;;;-1.30;99.90;;;;;;493988;241;27546;-73
2023/01/20 08:09:56;;;;;;;23.92;15.07;;;-1.30;99.90;;;;;;493980;241;27494;-73
2023/01/20 08:11:58;;;;;;;23.20;15.10;;;-1.30;99.90;;;;;;494007;241;27482;-73
2023/01/20 08:13:59;;;;;;;27.15;15.43;;;-1.30;99.90;;;;;;493993;241;27492;-73
2023/01/20 08:16:00;;;;;;;23.52;14.65;;;-1.20;99.90;;;;;;494014;241;27526;-74
2023/01/20 08:18:01;;;;;;;24.92;15.25;;;-1.20;99.90;;;;;;494012;239;29191;-73
2023/01/20 08:20:03;;;;;;;21.30;13.90;;;-1.20;99.90;;;;;;494006;241;27502;-73
2023/01/20 08:22:04;;;;;;;20.52;14.80;;;-1.10;99.90;;;;;;494003;241;27481;-74
2023/01/20 08:24:05;;;;;;;25.48;13.82;;;-1.10;99.90;;;;;;494005;241;27474;-73
2023/01/20 08:26:06;;;;;;;21.17;14.02;;;-1.10;99.90;;;;;;494016;241;27489;-73
2023/01/20 08:28:08;;;;;;;27.48;15.45;;;-1.10;99.90;;;;;;494012;241;27914;-73
2023/01/20 08:30:09;;;;;;;25.40;14.50;;;-1.00;99.90;;;;;;493996;241;29083;-73
2023/01/20 08:32:10;;;;;;;20.33;14.93;;;-1.00;99.90;;;;;;494004;241;27550;-73
2023/01/20 08:34:11;;;;;;;23.08;15.30;;;-1.00;99.90;;;;;;494001;241;27501;-73
2023/01/20 08:36:13;;;;;;;20.98;14.60;;;-1.10;99.90;;;;;;494006;241;27544;-73
2023/01/20 08:38:14;;;;;;;22.00;14.50;;;-1.10;99.90;;;;;;494017;241;27510;-74
2023/01/20 08:40:15;;;;;;;21.70;15.02;;;-1.10;99.90;;;;;;494015;241;27496;-73
2023/01/20 08:42:16;;;;;;;22.85;14.93;;;-1.10;99.90;;;;;;494005;241;29062;-73
2023/01/20 08:44:19;;;;;;;22.98;14.45;;;-1.10;99.90;;;;;;494028;241;27540;-73
2023/01/20 08:46:19;;;;;;;27.35;15.93;;;-1.10;99.90;;;;;;493967;241;27504;-73
2023/01/20 08:48:20;;;;;;;26.42;16.60;;;-1.10;99.90;;;;;;494023;241;27459;-73
2023/01/20 08:50:23;;;;;;;29.77;17.17;;;-1.00;99.90;;;;;;494020;241;27588;-73
2023/01/20 08:52:23;;;;;;;25.85;16.35;;;-1.00;99.90;;;;;;493924;241;27501;-74
2023/01/20 08:54:24;;;;;;;21.02;14.00;;;-1.00;99.90;;;;;;494014;241;27948;-73
2023/01/20 08:56:25;;;;;;;26.25;17.02;;;-1.00;99.90;;;;;;493994;241;27528;-73
2023/01/20 08:58:27;;;;;;;27.83;17.05;;;-0.90;99.90;;;;;;494027;241;27585;-73
2023/01/20 09:00:28;;;;;;;25.65;16.77;;;-0.70;99.90;;;;;;494051;241;27481;-73
2023/01/20 09:02:29;;;;;;;23.77;16.75;;;-0.70;99.90;;;;;;494034;241;27515;-74
2023/01/20 09:04:30;;;;;;;29.00;19.02;;;-0.70;99.90;;;;;;494042;241;27545;-73
2023/01/20 09:06:32;;;;;;;25.30;16.35;;;-0.70;99.90;;;;;;494022;241;27986;-73
2023/01/20 09:08:33;;;;;;;24.05;15.95;;;-0.60;99.90;;;;;;493973;241;29165;-73
2023/01/20 09:10:34;;;;;;;29.33;18.52;;;-0.50;99.90;;;;;;494035;241;27533;-73
2023/01/20 09:12:36;;;;;;;25.92;18.02;;;-0.40;99.90;;;;;;494035;241;27506;-74
2023/01/20 09:14:37;;;;;;;25.33;16.80;;;-0.30;99.90;;;;;;494003;241;27456;-73
2023/01/20 09:16:38;;;;;;;28.25;17.10;;;-0.20;99.90;;;;;;494028;241;27521;-73
2023/01/20 09:18:39;;;;;;;27.20;17.60;;;-0.10;99.90;;;;;;494048;241;27994;-74
2023/01/20 09:20:40;;;;;;;31.80;17.90;;;0.00;99.90;;;;;;493984;241;29106;-73
2023/01/20 09:22:42;;;;;;;30.40;19.00;;;0.00;99.90;;;;;;494049;241;27585;-74
2023/01/20 09:24:43;;;;;;;26.55;17.60;;;0.10;99.90;;;;;;494027;241;27462;-73
2023/01/20 09:26:44;;;;;;;28.27;18.80;;;0.10;99.90;;;;;;494033;241;27470;-73
2023/01/20 09:28:45;;;;;;;27.67;17.00;;;0.20;99.90;;;;;;491447;241;41024;-73
2023/01/20 09:30:47;;;;;;;28.45;17.75;;;0.10;99.90;;;;;;493976;241;28841;-73
2023/01/20 09:32:48;;;;;;;27.08;16.40;;;0.20;99.90;;;;;;494015;241;27497;-73
2023/01/20 09:34:49;;;;;;;30.67;18.60;;;0.20;99.90;;;;;;493983;241;28823;-74
2023/01/20 09:36:51;;;;;;;24.77;16.73;;;0.20;99.90;;;;;;493994;239;28009;-73
2023/01/20 09:45:50;;;;;;;23.27;15.10;;;0.30;99.90;;;;;;493970;241;27554;-73
2023/01/20 09:47:51;;;;;;;25.30;16.00;;;0.40;99.90;;;;;;493960;237;27615;-73
2023/01/20 09:54:32;;;;;;;26.87;16.05;;;0.60;99.90;;;;;;493953;241;27543;-73
2023/01/20 09:56:33;;;;;;;22.67;14.75;;;0.60;99.90;;;;;;493989;241;27470;-73
2023/01/20 09:58:34;;;;;;;25.00;14.23;;;0.60;99.90;;;;;;493992;241;27584;-73
2023/01/20 10:00:35;;;;;;;20.95;13.88;;;0.50;99.90;;;;;;494017;241;27925;-74
2023/01/20 10:02:37;;;;;;;22.95;14.35;;;0.50;99.90;;;;;;493978;241;28102;-73
2023/01/20 10:04:38;;;;;;;22.62;14.50;;;0.60;99.90;;;;;;494025;241;27588;-74
2023/01/20 10:06:39;;;;;;;20.08;12.77;;;0.60;99.90;;;;;;494033;238;27487;-74
2023/01/20 10:08:40;;;;;;;19.48;13.38;;;0.60;99.90;;;;;;494002;241;27495;-73
2023/01/20 10:10:42;;;;;;;21.42;14.68;;;0.50;99.90;;;;;;494021;241;27483;-74
2023/01/20 10:12:43;;;;;;;24.85;13.35;;;0.50;99.90;;;;;;493997;241;27518;-74
2023/01/20 10:14:44;;;;;;;19.50;12.55;;;0.50;99.90;;;;;;493991;241;27607;-74
2023/01/20 10:16:46;;;;;;;21.55;12.75;;;0.60;99.90;;;;;;494004;241;28089;-73
2023/01/20 10:18:47;;;;;;;18.37;12.23;;;0.60;99.90;;;;;;493991;241;27987;-73
2023/01/20 10:20:48;;;;;;;19.45;13.40;;;0.70;99.90;;;;;;494020;241;27537;-73
2023/01/20 10:22:49;;;;;;;23.12;13.32;;;0.80;99.90;;;;;;493983;241;27492;-73
2023/01/20 10:24:51;;;;;;;19.05;12.80;;;0.80;99.90;;;;;;494025;241;27502;-73
2023/01/20 10:26:52;;;;;;;20.62;13.95;;;1.00;99.90;;;;;;493981;241;27629;-74
2023/01/20 10:28:53;;;;;;;16.10;10.90;;;1.00;99.90;;;;;;493983;241;27513;-73